createdAt,value
2018-09-10T00:00:26.292Z,6.00
2018-09-10T00:01:26.336Z,5.60
2018-09-10T00:02:26.375Z,6.00
2018-09-10T00:03:26.412Z,6.20
2018-09-10T00:04:26.451Z,6.10
2018-09-10T00:05:26.495Z,6.10
2018-09-10T00:06:26.530Z,5.30
2018-09-10T00:07:26.572Z,6.00
2018-09-10T00:08:26.613Z,5.80
2018-09-10T00:09:26.653Z,6.20
2018-09-10T00:10:26.688Z,5.50
2018-09-10T00:11:26.773Z,5.70
2018-09-10T00:12:26.766Z,5.80
2018-09-10T00:13:26.806Z,5.50
2018-09-10T00:14:26.844Z,5.70
2018-09-10T00:15:26.884Z,5.50
2018-09-10T00:16:26.931Z,5.50
2018-09-10T00:17:26.964Z,5.70
2018-09-10T00:18:27.001Z,5.20
2018-09-10T00:19:27.046Z,5.10
2018-09-10T00:20:27.083Z,5.40
2018-09-10T00:21:27.120Z,5.10
2018-09-10T00:22:27.160Z,5.00
2018-09-10T00:23:27.198Z,5.10
2018-09-10T00:24:27.239Z,4.90
2018-09-10T00:25:27.281Z,5.10
2018-09-10T00:26:27.320Z,5.40
2018-09-10T00:27:27.358Z,5.40
2018-09-10T00:28:27.397Z,5.20
2018-09-10T00:29:27.438Z,5.00
2018-09-10T00:30:27.474Z,5.10
2018-09-10T00:31:27.517Z,5.20
2018-09-10T00:32:27.555Z,5.00
2018-09-10T00:33:27.594Z,5.10
2018-09-10T00:34:27.633Z,5.00
2018-09-10T00:35:27.673Z,4.80
2018-09-10T00:36:27.762Z,5.20
2018-09-10T00:37:27.754Z,4.30
2018-09-10T00:38:27.788Z,5.20
2018-09-10T00:39:27.835Z,4.80
2018-09-10T00:40:27.875Z,5.00
2018-09-10T00:41:27.908Z,5.00
2018-09-10T00:42:27.947Z,4.90
2018-09-10T00:43:27.987Z,4.80
2018-09-10T00:44:28.026Z,4.80
2018-09-10T00:45:28.073Z,4.60
2018-09-10T00:46:28.112Z,5.00
2018-09-10T00:47:28.142Z,4.80
2018-09-10T00:48:28.182Z,4.60
2018-09-10T00:49:28.220Z,5.10
2018-09-10T00:50:28.261Z,4.90
2018-09-10T00:51:28.301Z,5.00
2018-09-10T00:52:28.340Z,5.10
2018-09-10T00:53:28.379Z,5.10
2018-09-10T00:54:28.418Z,4.90
2018-09-10T00:55:28.459Z,4.90
2018-09-10T00:56:28.497Z,5.40
2018-09-10T00:57:28.535Z,5.70
2018-09-10T00:58:28.574Z,5.70
2018-09-10T00:59:28.616Z,5.50
2018-09-10T01:00:28.653Z,5.70
2018-09-10T01:01:28.693Z,5.20
2018-09-10T01:02:28.732Z,5.70
2018-09-10T01:03:28.771Z,5.50
2018-09-10T01:04:28.810Z,5.40
2018-09-10T01:05:28.853Z,5.60
2018-09-10T01:06:28.889Z,5.40
2018-09-10T01:07:28.928Z,5.30
2018-09-10T01:08:28.968Z,5.70
2018-09-10T01:09:29.007Z,5.60
2018-09-10T01:10:29.044Z,5.60
2018-09-10T01:11:29.084Z,5.70
2018-09-10T01:12:29.122Z,5.40
2018-09-10T01:13:29.164Z,5.20
2018-09-10T01:14:29.201Z,5.40
2018-09-10T01:15:29.241Z,6.10
2018-09-10T01:16:29.279Z,5.40
2018-09-10T01:17:29.319Z,5.80
2018-09-10T01:18:29.356Z,5.70
2018-09-10T01:19:29.396Z,5.40
2018-09-10T01:20:29.435Z,5.60
2018-09-10T01:21:29.475Z,5.80
2018-09-10T01:22:29.513Z,5.90
2018-09-10T01:23:29.553Z,6.30
2018-09-10T01:24:29.621Z,5.60
2018-09-10T01:25:29.631Z,5.50
2018-09-10T01:26:29.672Z,5.60
2018-09-10T01:27:29.708Z,5.80
2018-09-10T01:28:29.750Z,5.90
2018-09-10T01:29:29.786Z,5.90
2018-09-10T01:30:29.926Z,5.70
2018-09-10T01:31:29.864Z,4.90
2018-09-10T01:32:29.904Z,5.40
2018-09-10T01:33:29.944Z,5.30
2018-09-10T01:34:29.982Z,5.50
2018-09-10T01:35:30.030Z,5.10
2018-09-10T01:36:30.061Z,5.60
2018-09-10T01:37:30.101Z,5.60
2018-09-10T01:38:30.138Z,5.50
2018-09-10T01:39:30.182Z,5.40
2018-09-10T01:40:30.216Z,5.10
2018-09-10T01:41:30.257Z,5.30
2018-09-10T01:42:30.292Z,5.30
2018-09-10T01:43:30.332Z,5.30
2018-09-10T01:44:30.373Z,5.00
2018-09-10T01:45:30.421Z,5.40
2018-09-10T01:46:30.449Z,5.50
2018-09-10T01:47:30.488Z,5.90
2018-09-10T01:48:30.527Z,4.90
2018-09-10T01:49:30.570Z,5.10
2018-09-10T01:50:30.606Z,5.00
2018-09-10T01:51:30.643Z,5.20
2018-09-10T01:52:30.683Z,5.30
2018-09-10T01:53:30.721Z,5.40
2018-09-10T01:54:30.761Z,5.30
2018-09-10T01:55:30.800Z,5.40
2018-09-10T01:56:30.839Z,5.30
2018-09-10T01:57:30.879Z,5.80
2018-09-10T01:58:30.918Z,6.10
2018-09-10T01:59:30.956Z,5.80
2018-09-10T02:00:30.994Z,6.10
2018-09-10T02:01:31.035Z,5.70
2018-09-10T02:02:31.072Z,5.40
2018-09-10T02:03:31.111Z,5.40
2018-09-10T02:04:31.151Z,5.60
2018-09-10T02:05:31.189Z,5.60
2018-09-10T02:06:31.278Z,5.60
2018-09-10T02:07:31.268Z,5.60
2018-09-10T02:08:31.318Z,5.50
2018-09-10T02:09:31.344Z,5.80
2018-09-10T02:10:31.384Z,6.00
2018-09-10T02:11:31.425Z,5.70
2018-09-10T02:12:31.462Z,5.30
2018-09-10T02:13:31.501Z,5.30
2018-09-10T02:14:31.539Z,5.10
2018-09-10T02:15:31.579Z,5.50
2018-09-10T02:16:31.617Z,5.90
2018-09-10T02:17:31.658Z,6.10
2018-09-10T02:18:31.693Z,5.20
2018-09-10T02:19:31.734Z,5.40
2018-09-10T02:20:31.772Z,5.80
2018-09-10T02:21:31.812Z,5.60
2018-09-10T02:22:31.849Z,5.60
2018-09-10T02:23:31.944Z,5.60
2018-09-10T02:24:31.928Z,5.60
2018-09-10T02:25:31.970Z,6.10
2018-09-10T02:26:32.005Z,5.90
2018-09-10T02:27:32.263Z,5.50
2018-09-10T02:28:32.084Z,5.60
2018-09-10T02:29:32.126Z,5.90
2018-09-10T02:30:32.161Z,5.90
2018-09-10T02:31:32.216Z,5.70
2018-09-10T02:32:32.240Z,5.80
2018-09-10T02:33:32.279Z,5.50
2018-09-10T02:34:32.321Z,5.20
2018-09-10T02:35:32.355Z,4.80
2018-09-10T02:36:32.395Z,5.20
2018-09-10T02:37:32.441Z,4.80
2018-09-10T02:38:32.552Z,5.00
2018-09-10T02:39:32.513Z,4.90
2018-09-10T02:40:32.554Z,4.70
2018-09-10T02:41:32.589Z,4.90
2018-09-10T02:42:32.626Z,5.30
2018-09-10T02:43:32.666Z,5.00
2018-09-10T02:44:32.707Z,5.00
2018-09-10T02:45:32.745Z,5.00
2018-09-10T02:46:32.784Z,4.70
2018-09-10T02:47:32.823Z,5.00
2018-09-10T02:48:32.860Z,4.90
2018-09-10T02:49:32.904Z,5.10
2018-09-10T02:50:32.937Z,5.00
2018-09-10T02:51:32.976Z,4.90
2018-09-10T02:52:33.016Z,5.80
2018-09-10T02:53:33.071Z,5.70
2018-09-10T02:54:33.096Z,5.80
2018-09-10T02:55:33.135Z,5.70
2018-09-10T02:56:33.172Z,5.90
2018-09-10T02:57:33.211Z,5.80
2018-09-10T02:58:33.249Z,6.30
2018-09-10T02:59:33.288Z,6.50
2018-09-10T03:00:33.326Z,6.40
2018-09-10T03:01:33.367Z,6.30
2018-09-10T03:02:33.404Z,5.90
2018-09-10T03:03:33.471Z,6.40
2018-09-10T03:04:33.483Z,6.20
2018-09-10T03:05:33.526Z,6.10
2018-09-10T03:06:33.560Z,6.30
2018-09-10T03:07:33.602Z,6.60
2018-09-10T03:08:33.639Z,6.30
2018-09-10T03:09:33.676Z,6.70
2018-09-10T03:10:33.728Z,6.40
2018-09-10T03:11:33.754Z,6.40
2018-09-10T03:12:33.795Z,6.10
2018-09-10T03:13:33.830Z,5.80
2018-09-10T03:14:33.868Z,6.00
2018-09-10T03:15:33.909Z,6.00
2018-09-10T03:16:33.948Z,5.70
2018-09-10T03:17:33.995Z,5.90
2018-09-10T03:18:34.024Z,5.90
2018-09-10T03:19:34.065Z,6.20
2018-09-10T03:20:34.102Z,6.20
2018-09-10T03:21:34.142Z,5.80
2018-09-10T03:22:34.182Z,5.80
2018-09-10T03:23:34.217Z,5.60
2018-09-10T03:24:34.260Z,6.00
2018-09-10T03:25:34.295Z,5.90
2018-09-10T03:26:34.333Z,5.30
2018-09-10T03:27:34.371Z,5.90
2018-09-10T03:28:34.411Z,5.70
2018-09-10T03:29:34.469Z,5.90
2018-09-10T03:30:34.487Z,5.90
2018-09-10T03:31:34.538Z,5.80
2018-09-10T03:32:34.615Z,5.70
2018-09-10T03:33:34.670Z,5.60
2018-09-10T03:34:34.642Z,5.70
2018-09-10T03:35:34.685Z,6.00
2018-09-10T03:36:34.722Z,5.90
2018-09-10T03:37:34.759Z,6.10
2018-09-10T03:38:34.797Z,5.40
2018-09-10T03:39:34.836Z,5.10
2018-09-10T03:40:34.883Z,6.20
2018-09-10T03:41:34.914Z,6.10
2018-09-10T03:42:34.952Z,5.40
2018-09-10T03:43:34.991Z,5.90
2018-09-10T03:44:35.029Z,6.20
2018-09-10T03:45:35.067Z,5.80
2018-09-10T03:46:35.107Z,6.50
2018-09-10T03:47:35.147Z,6.20
2018-09-10T03:48:35.185Z,6.00
2018-09-10T03:49:35.225Z,5.70
2018-09-10T03:50:35.258Z,5.50
2018-09-10T03:51:35.299Z,5.40
2018-09-10T03:52:35.339Z,6.00
2018-09-10T03:53:35.376Z,6.10
2018-09-10T03:54:35.414Z,6.00
2018-09-10T03:55:35.453Z,6.50
2018-09-10T03:56:35.491Z,6.20
2018-09-10T03:57:35.530Z,6.20
2018-09-10T03:58:35.584Z,5.90
2018-09-10T03:59:35.611Z,5.40
2018-09-10T04:00:35.650Z,5.30
2018-09-10T04:01:35.685Z,5.70
2018-09-10T04:02:35.724Z,6.30
2018-09-10T04:03:35.765Z,6.70
2018-09-10T04:04:35.801Z,6.70
2018-09-10T04:05:35.846Z,7.00
2018-09-10T04:06:35.877Z,7.60
2018-09-10T04:07:35.919Z,7.00
2018-09-10T04:08:35.956Z,7.10
2018-09-10T04:09:35.993Z,7.00
2018-09-10T04:10:36.033Z,6.70
2018-09-10T04:11:36.075Z,7.10
2018-09-10T04:12:36.110Z,6.50
2018-09-10T04:13:36.148Z,7.10
2018-09-10T04:14:36.186Z,6.50
2018-09-10T04:15:36.226Z,7.60
2018-09-10T04:16:36.263Z,7.20
2018-09-10T04:17:36.301Z,6.90
2018-09-10T04:18:36.340Z,7.00
2018-09-10T04:19:36.378Z,7.20
2018-09-10T04:20:36.416Z,7.00
2018-09-10T04:21:36.456Z,7.50
2018-09-10T04:22:36.493Z,7.40
2018-09-10T04:23:36.535Z,7.00
2018-09-10T04:24:36.577Z,5.70
2018-09-10T04:25:36.610Z,6.00
2018-09-10T04:26:36.647Z,5.40
2018-09-10T04:27:36.695Z,5.40
2018-09-10T04:28:36.727Z,5.70
2018-09-10T04:29:36.764Z,5.20
2018-09-10T04:30:36.802Z,5.80
2018-09-10T04:31:36.840Z,5.80
2018-09-10T04:32:36.880Z,5.40
2018-09-10T04:33:36.919Z,5.70
2018-09-10T04:34:36.957Z,5.80
2018-09-10T04:35:36.996Z,6.20
2018-09-10T04:36:37.037Z,5.90
2018-09-10T04:37:37.073Z,6.30
2018-09-10T04:38:37.111Z,6.30
2018-09-10T04:39:37.150Z,6.10
2018-09-10T04:40:37.190Z,6.60
2018-09-10T04:41:37.234Z,5.70
2018-09-10T04:42:37.267Z,6.00
2018-09-10T04:43:37.304Z,5.60
2018-09-10T04:44:37.347Z,6.00
2018-09-10T04:45:37.382Z,6.00
2018-09-10T04:46:37.422Z,5.70
2018-09-10T04:47:37.466Z,5.90
2018-09-10T04:48:37.497Z,5.60
2018-09-10T04:49:37.601Z,5.50
2018-09-10T04:50:37.575Z,5.30
2018-09-10T04:51:37.614Z,5.70
2018-09-10T04:52:37.653Z,5.60
2018-09-10T04:53:37.692Z,5.50
2018-09-10T04:54:37.727Z,5.60
2018-09-10T04:55:37.768Z,5.90
2018-09-10T04:56:37.812Z,6.00
2018-09-10T04:57:37.849Z,6.00
2018-09-10T04:58:37.883Z,6.10
2018-09-10T04:59:37.924Z,5.80
2018-09-10T05:00:37.966Z,5.40
2018-09-10T05:01:38.000Z,5.60
2018-09-10T05:02:38.037Z,5.50
2018-09-10T05:03:38.076Z,5.70
2018-09-10T05:04:38.221Z,5.90
2018-09-10T05:05:38.154Z,5.70
2018-09-10T05:06:38.193Z,5.60
2018-09-10T05:07:38.231Z,6.10
2018-09-10T05:08:38.271Z,5.90
2018-09-10T05:09:38.310Z,6.30
2018-09-10T05:10:38.347Z,5.50
2018-09-10T05:11:38.391Z,5.70
2018-09-10T05:12:38.427Z,6.10
2018-09-10T05:13:38.469Z,5.70
2018-09-10T05:14:38.502Z,5.90
2018-09-10T05:15:38.543Z,5.90
2018-09-10T05:16:38.581Z,5.90
2018-09-10T05:17:38.619Z,5.30
2018-09-10T05:18:38.658Z,5.30
2018-09-10T05:19:38.697Z,5.20
2018-09-10T05:20:38.835Z,5.30
2018-09-10T05:21:38.773Z,5.70
2018-09-10T05:22:38.812Z,5.90
2018-09-10T05:23:38.851Z,5.60
2018-09-10T05:24:38.892Z,6.00
2018-09-10T05:25:38.929Z,5.70
2018-09-10T05:26:38.966Z,6.00
2018-09-10T05:27:39.005Z,6.20
2018-09-10T05:28:39.044Z,6.00
2018-09-10T05:29:39.088Z,5.70
2018-09-10T05:30:39.121Z,5.40
2018-09-10T05:31:39.169Z,5.30
2018-09-10T05:32:39.199Z,5.80
2018-09-10T05:33:39.242Z,5.20
2018-09-10T05:34:39.280Z,5.20
2018-09-10T05:35:39.316Z,5.00
2018-09-10T05:36:39.356Z,5.10
2018-09-10T05:37:39.394Z,5.30
2018-09-10T05:38:39.431Z,5.40
2018-09-10T05:39:39.471Z,5.40
2018-09-10T05:40:39.514Z,5.20
2018-09-10T05:41:39.635Z,5.30
2018-09-10T05:42:39.591Z,5.50
2018-09-10T05:43:39.635Z,5.50
2018-09-10T05:44:39.670Z,5.50
2018-09-10T05:45:39.706Z,5.50
2018-09-10T05:46:39.742Z,5.30
2018-09-10T05:47:39.988Z,5.60
2018-09-10T05:48:39.822Z,5.20
2018-09-10T05:49:39.860Z,5.50
2018-09-10T05:50:39.899Z,5.10
2018-09-10T05:51:39.941Z,4.90
2018-09-10T05:52:39.979Z,5.30
2018-09-10T05:53:40.017Z,5.80
2018-09-10T05:54:40.054Z,5.00
2018-09-10T05:55:40.145Z,5.40
2018-09-10T05:56:40.135Z,5.00
2018-09-10T05:57:40.171Z,4.90
2018-09-10T05:58:40.212Z,4.80
2018-09-10T05:59:40.257Z,5.00
2018-09-10T06:00:40.289Z,5.00
2018-09-10T06:01:40.328Z,4.80
2018-09-10T06:02:40.366Z,5.10
2018-09-10T06:03:40.406Z,5.00
2018-09-10T06:04:40.445Z,4.80
2018-09-10T06:05:40.486Z,5.10
2018-09-10T06:06:40.524Z,5.00
2018-09-10T06:07:40.571Z,4.90
2018-09-10T06:08:40.609Z,4.80
2018-09-10T06:09:40.644Z,5.10
2018-09-10T06:10:40.737Z,5.00
2018-09-10T06:11:40.728Z,5.20
2018-09-10T06:12:40.759Z,5.30
2018-09-10T06:13:40.803Z,4.80
2018-09-10T06:14:40.849Z,5.00
2018-09-10T06:15:40.880Z,4.80
2018-09-10T06:16:40.999Z,5.10
2018-09-10T06:17:40.960Z,5.10
2018-09-10T06:18:40.999Z,5.50
2018-09-10T06:19:41.047Z,5.40
2018-09-10T06:20:41.078Z,5.10
2018-09-10T06:21:41.118Z,5.00
2018-09-10T06:22:41.156Z,5.20
2018-09-10T06:23:41.197Z,4.80
2018-09-10T06:24:41.240Z,5.10
2018-09-10T06:25:41.276Z,4.60
2018-09-10T06:26:41.316Z,4.90
2018-09-10T06:27:41.354Z,5.10
2018-09-10T06:28:41.394Z,4.70
2018-09-10T06:29:41.434Z,4.60
2018-09-10T06:30:41.473Z,4.80
2018-09-10T06:31:41.520Z,4.60
2018-09-10T06:32:41.553Z,4.90
2018-09-10T06:33:41.593Z,4.80
2018-09-10T06:34:41.662Z,4.50
2018-09-10T06:35:41.681Z,4.70
2018-09-10T06:36:41.718Z,4.60
2018-09-10T06:37:41.753Z,4.40
2018-09-10T06:38:41.793Z,4.70
2018-09-10T06:39:41.833Z,4.70
2018-09-10T06:40:41.873Z,4.80
2018-09-10T06:41:41.916Z,4.70
2018-09-10T06:42:41.958Z,4.90
2018-09-10T06:43:42.001Z,4.70
2018-09-10T06:44:42.053Z,4.50
2018-09-10T06:45:42.074Z,4.90
2018-09-10T06:46:42.114Z,4.90
2018-09-10T06:47:42.159Z,4.80
2018-09-10T06:48:42.195Z,4.70
2018-09-10T06:49:42.236Z,5.30
2018-09-10T06:50:42.276Z,5.30
2018-09-10T06:51:42.317Z,5.70
2018-09-10T06:52:42.358Z,6.20
2018-09-10T06:53:42.397Z,6.70
2018-09-10T06:54:42.446Z,8.50
2018-09-10T06:55:42.478Z,8.80
2018-09-10T06:56:42.522Z,6.90
2018-09-10T06:57:42.559Z,6.90
2018-09-10T06:58:42.599Z,6.70
2018-09-10T06:59:42.646Z,7.30
2018-09-10T07:00:42.682Z,7.00
2018-09-10T07:01:42.722Z,5.40
2018-09-10T07:02:42.762Z,5.10
2018-09-10T07:03:42.803Z,4.90
2018-09-10T07:04:42.846Z,4.50
2018-09-10T07:05:42.886Z,4.60
2018-09-10T07:06:42.927Z,4.50
2018-09-10T07:07:42.967Z,4.30
2018-09-10T07:08:43.009Z,4.60
2018-09-10T07:09:43.050Z,4.60
2018-09-10T07:10:43.089Z,4.20
2018-09-10T07:11:43.133Z,4.40
2018-09-10T07:12:43.204Z,4.40
2018-09-10T07:13:43.214Z,4.30
2018-09-10T07:14:43.257Z,4.30
2018-09-10T07:15:43.295Z,4.50
2018-09-10T07:16:43.337Z,4.70
2018-09-10T07:17:43.379Z,4.20
2018-09-10T07:18:43.554Z,4.70
2018-09-10T07:19:43.460Z,4.50
2018-09-10T07:20:43.500Z,4.20
2018-09-10T07:21:43.541Z,4.40
2018-09-10T07:22:43.603Z,4.60
2018-09-10T07:23:43.624Z,4.20
2018-09-10T07:24:43.663Z,4.20
2018-09-10T07:25:43.703Z,4.50
2018-09-10T07:26:43.744Z,4.40
2018-09-10T07:27:43.786Z,4.60
2018-09-10T07:28:43.827Z,4.40
2018-09-10T07:29:43.868Z,4.30
2018-09-10T07:30:43.908Z,4.40
2018-09-10T07:31:43.950Z,4.50
2018-09-10T07:32:43.990Z,4.10
2018-09-10T07:33:44.033Z,4.20
2018-09-10T07:34:44.073Z,4.30
2018-09-10T07:35:44.116Z,4.10
2018-09-10T07:36:44.156Z,4.20
2018-09-10T07:37:44.197Z,4.40
2018-09-10T07:38:44.242Z,4.30
2018-09-10T07:39:44.279Z,4.30
2018-09-10T07:40:44.323Z,4.30
2018-09-10T07:41:44.363Z,4.20
2018-09-10T07:42:44.402Z,4.40
2018-09-10T07:43:44.522Z,4.30
2018-09-10T07:44:44.486Z,4.30
2018-09-10T07:45:44.529Z,4.20
2018-09-10T07:46:44.588Z,3.80
2018-09-10T07:47:44.610Z,4.20
2018-09-10T07:48:44.686Z,4.00
2018-09-10T07:49:44.695Z,4.20
2018-09-10T07:50:44.737Z,3.90
2018-09-10T07:51:44.776Z,3.80
2018-09-10T07:52:44.824Z,3.90
2018-09-10T07:53:44.859Z,4.20
2018-09-10T07:54:44.902Z,4.00
2018-09-10T07:55:44.944Z,4.00
2018-09-10T07:56:44.987Z,4.30
2018-09-10T07:57:45.027Z,4.60
2018-09-10T07:58:45.069Z,3.80
2018-09-10T07:59:45.110Z,4.00
2018-09-10T08:00:45.169Z,4.20
2018-09-10T08:01:45.193Z,4.60
2018-09-10T08:02:45.234Z,4.30
2018-09-10T08:03:45.285Z,4.40
2018-09-10T08:04:45.320Z,4.10
2018-09-10T08:05:45.362Z,3.60
2018-09-10T08:06:45.406Z,3.70
2018-09-10T08:07:45.444Z,4.00
2018-09-10T08:08:45.494Z,3.60
2018-09-10T08:09:45.530Z,3.80
2018-09-10T08:10:45.618Z,3.60
2018-09-10T08:11:45.611Z,3.70
2018-09-10T08:12:45.659Z,3.70
2018-09-10T08:13:45.696Z,3.80
2018-09-10T08:14:45.738Z,4.20
2018-09-10T08:15:45.780Z,4.20
2018-09-10T08:16:45.823Z,4.50
2018-09-10T08:17:45.872Z,3.90
2018-09-10T08:18:45.904Z,3.80
2018-09-10T08:19:45.946Z,3.40
2018-09-10T08:20:45.988Z,3.40
2018-09-10T08:21:46.030Z,3.20
2018-09-10T08:22:46.072Z,3.20
2018-09-10T08:23:46.113Z,3.30
2018-09-10T08:24:46.157Z,3.10
2018-09-10T08:25:46.200Z,3.60
2018-09-10T08:26:46.241Z,3.20
2018-09-10T08:27:46.283Z,3.20
2018-09-10T08:28:46.325Z,2.90
2018-09-10T08:29:46.369Z,3.00
2018-09-10T08:30:46.412Z,3.10
2018-09-10T08:31:46.452Z,3.00
2018-09-10T08:32:46.495Z,3.20
2018-09-10T08:33:46.538Z,2.90
2018-09-10T08:34:46.579Z,2.90
2018-09-10T08:35:46.622Z,2.80
2018-09-10T08:36:46.666Z,2.80
2018-09-10T08:37:46.707Z,2.90
2018-09-10T08:38:46.758Z,3.00
2018-09-10T08:39:46.793Z,2.60
2018-09-10T08:40:46.835Z,3.00
2018-09-10T08:41:46.891Z,3.10
2018-09-10T08:42:46.951Z,2.80
2018-09-10T08:43:46.964Z,3.10
2018-09-10T08:44:47.006Z,2.70
2018-09-10T08:45:47.049Z,2.50
2018-09-10T08:46:47.091Z,2.90
2018-09-10T08:47:47.134Z,2.80
2018-09-10T08:48:47.177Z,2.80
2018-09-10T08:49:47.220Z,2.90
2018-09-10T08:50:47.261Z,2.90
2018-09-10T08:51:47.304Z,2.80
2018-09-10T08:52:47.348Z,2.80
2018-09-10T08:53:47.390Z,2.90
2018-09-10T08:54:47.689Z,2.80
2018-09-10T08:55:47.728Z,3.00
2018-09-10T08:56:47.521Z,3.00
2018-09-10T08:57:47.561Z,2.60
2018-09-10T08:58:47.602Z,2.80
2018-09-10T08:59:47.646Z,2.70
2018-09-10T09:00:47.690Z,2.80
2018-09-10T09:01:47.741Z,3.10
2018-09-10T09:02:47.775Z,3.00
2018-09-10T09:03:47.820Z,2.80
2018-09-10T09:04:47.863Z,2.80
2018-09-10T09:05:47.967Z,2.90
2018-09-10T09:06:47.947Z,2.70
2018-09-10T09:07:47.991Z,2.80
2018-09-10T09:08:48.032Z,2.80
2018-09-10T09:09:48.077Z,2.80
2018-09-10T09:10:48.117Z,2.80
2018-09-10T09:11:48.168Z,2.90
2018-09-10T09:12:48.208Z,2.70
2018-09-10T09:13:48.248Z,2.60
2018-09-10T09:14:48.294Z,2.80
2018-09-10T09:15:48.334Z,2.70
2018-09-10T09:16:48.381Z,2.50
2018-09-10T09:17:48.420Z,2.60
2018-09-10T09:18:48.460Z,2.70
2018-09-10T09:19:48.505Z,2.60
2018-09-10T09:20:48.547Z,2.70
2018-09-10T09:21:48.592Z,2.60
2018-09-10T09:22:48.633Z,2.60
2018-09-10T09:23:48.677Z,2.60
2018-09-10T09:24:48.770Z,2.40
2018-09-10T09:25:48.764Z,2.20
2018-09-10T09:26:48.810Z,2.60
2018-09-10T09:27:48.849Z,2.30
2018-09-10T09:28:48.892Z,2.60
2018-09-10T09:29:48.942Z,2.50
2018-09-10T09:30:48.978Z,2.70
2018-09-10T09:31:49.022Z,2.30
2018-09-10T09:32:49.065Z,2.50
2018-09-10T09:33:49.112Z,2.80
2018-09-10T09:34:49.152Z,2.50
2018-09-10T09:35:49.196Z,2.60
2018-09-10T09:36:49.240Z,2.80
2018-09-10T09:37:49.283Z,2.70
2018-09-10T09:38:49.327Z,2.60
2018-09-10T09:39:49.370Z,2.80
2018-09-10T09:40:49.413Z,2.60
2018-09-10T09:41:49.462Z,2.40
2018-09-10T09:42:49.500Z,2.70
2018-09-10T09:43:49.545Z,2.40
2018-09-10T09:44:49.587Z,2.70
2018-09-10T09:45:49.629Z,2.40
2018-09-10T09:46:49.671Z,2.60
2018-09-10T09:47:49.715Z,2.80
2018-09-10T09:48:49.758Z,2.40
2018-09-10T09:49:49.801Z,2.50
2018-09-10T09:50:49.845Z,2.60
2018-09-10T09:51:49.891Z,2.60
2018-09-10T09:52:49.938Z,2.40
2018-09-10T09:53:49.983Z,2.50
2018-09-10T09:54:50.018Z,2.70
2018-09-10T09:55:50.065Z,2.80
2018-09-10T09:56:50.105Z,2.30
2018-09-10T09:57:50.148Z,2.50
2018-09-10T09:58:50.192Z,2.70
2018-09-10T09:59:50.389Z,2.40
2018-09-10T10:00:50.279Z,2.60
2018-09-10T10:01:50.323Z,2.80
2018-09-10T10:02:50.364Z,2.80
2018-09-10T10:03:50.406Z,2.30
2018-09-10T10:04:50.451Z,2.20
2018-09-10T10:05:50.504Z,2.60
2018-09-10T10:06:50.543Z,2.40
2018-09-10T10:07:50.581Z,2.70
2018-09-10T10:08:50.626Z,2.30
2018-09-10T10:09:50.677Z,2.70
2018-09-10T10:10:50.710Z,2.90
2018-09-10T10:11:50.863Z,2.60
2018-09-10T10:12:50.799Z,2.30
2018-09-10T10:13:50.841Z,2.40
2018-09-10T10:14:50.884Z,2.60
2018-09-10T10:15:50.926Z,2.70
2018-09-10T10:16:50.970Z,2.60
2018-09-10T10:17:51.014Z,2.30
2018-09-10T10:18:51.057Z,2.90
2018-09-10T10:19:51.102Z,2.60
2018-09-10T10:20:51.152Z,2.40
2018-09-10T10:21:51.233Z,2.60
2018-09-10T10:22:51.232Z,2.50
2018-09-10T10:23:51.273Z,2.70
2018-09-10T10:24:51.317Z,2.40
2018-09-10T10:25:51.362Z,2.40
2018-09-10T10:26:51.406Z,2.40
2018-09-10T10:27:51.448Z,2.60
2018-09-10T10:28:51.492Z,2.50
2018-09-10T10:29:51.540Z,2.30
2018-09-10T10:30:51.579Z,2.50
2018-09-10T10:31:51.624Z,2.30
2018-09-10T10:32:51.669Z,2.30
2018-09-10T10:33:51.720Z,2.20
2018-09-10T10:34:51.758Z,2.20
2018-09-10T10:35:51.808Z,2.50
2018-09-10T10:36:51.846Z,2.40
2018-09-10T10:37:51.891Z,2.50
2018-09-10T10:38:51.930Z,2.30
2018-09-10T10:39:51.976Z,2.50
2018-09-10T10:40:52.021Z,2.20
2018-09-10T10:41:52.069Z,2.60
2018-09-10T10:42:52.108Z,2.50
2018-09-10T10:43:52.151Z,2.30
2018-09-10T10:44:52.196Z,2.30
2018-09-10T10:45:52.241Z,2.40
2018-09-10T10:46:52.285Z,2.60
2018-09-10T10:47:52.334Z,2.20
2018-09-10T10:48:52.375Z,2.50
2018-09-10T10:49:52.419Z,2.40
2018-09-10T10:50:52.471Z,2.30
2018-09-10T10:51:52.508Z,2.30
2018-09-10T10:52:52.553Z,2.40
2018-09-10T10:53:52.753Z,2.00
2018-09-10T10:54:52.642Z,2.20
2018-09-10T10:55:52.686Z,2.30
2018-09-10T10:56:52.732Z,2.30
2018-09-10T10:57:52.777Z,2.00
2018-09-10T10:58:52.820Z,2.40
2018-09-10T10:59:52.865Z,2.20
2018-09-10T11:00:52.913Z,2.20
2018-09-10T11:01:52.963Z,2.10
2018-09-10T11:02:53.003Z,2.30
2018-09-10T11:03:53.048Z,1.90
2018-09-10T11:04:53.092Z,1.90
2018-09-10T11:05:53.137Z,2.20
2018-09-10T11:06:53.190Z,2.30
2018-09-10T11:07:53.230Z,1.90
2018-09-10T11:08:53.273Z,2.20
2018-09-10T11:09:53.318Z,2.00
2018-09-10T11:10:53.362Z,2.10
2018-09-10T11:11:53.408Z,2.10
2018-09-10T11:12:53.452Z,2.10
2018-09-10T11:13:53.498Z,2.20
2018-09-10T11:14:53.544Z,2.00
2018-09-10T11:15:53.591Z,2.10
2018-09-10T11:16:53.641Z,2.10
2018-09-10T11:17:53.686Z,2.30
2018-09-10T11:18:53.723Z,2.10
2018-09-10T11:19:53.769Z,1.90
2018-09-10T11:20:53.816Z,2.10
2018-09-10T11:21:53.865Z,1.90
2018-09-10T11:22:53.912Z,2.20
2018-09-10T11:23:53.967Z,2.10
2018-09-10T11:24:53.998Z,2.00
2018-09-10T11:25:54.043Z,2.00
2018-09-10T11:26:54.087Z,2.00
2018-09-10T11:27:54.132Z,2.20
2018-09-10T11:28:54.178Z,2.00
2018-09-10T11:29:54.223Z,2.20
2018-09-10T11:30:54.267Z,2.40
2018-09-10T11:31:54.319Z,2.10
2018-09-10T11:32:54.361Z,2.10
2018-09-10T11:33:54.405Z,2.10
2018-09-10T11:34:54.451Z,2.10
2018-09-10T11:35:54.504Z,1.90
2018-09-10T11:36:54.541Z,2.20
2018-09-10T11:37:54.587Z,2.00
2018-09-10T11:38:54.632Z,1.90
2018-09-10T11:39:54.703Z,1.90
2018-09-10T11:40:54.725Z,2.00
2018-09-10T11:41:54.769Z,1.90
2018-09-10T11:42:54.814Z,2.00
2018-09-10T11:43:54.861Z,2.20
2018-09-10T11:44:54.906Z,1.70
2018-09-10T11:45:54.952Z,1.60
2018-09-10T11:46:54.997Z,1.80
2018-09-10T11:47:55.044Z,2.00
2018-09-10T11:48:55.092Z,1.80
2018-09-10T11:49:55.150Z,2.00
2018-09-10T11:50:55.188Z,1.80
2018-09-10T11:51:55.227Z,2.00
2018-09-10T11:52:55.282Z,2.00
2018-09-10T11:53:55.330Z,1.90
2018-09-10T11:54:55.367Z,1.80
2018-09-10T11:55:55.410Z,1.80
2018-09-10T11:56:55.467Z,1.90
2018-09-10T11:57:55.508Z,1.80
2018-09-10T11:58:55.548Z,1.90
2018-09-10T11:59:55.597Z,1.90
2018-09-10T12:00:55.640Z,1.60
2018-09-10T12:01:55.697Z,1.80
2018-09-10T12:02:55.737Z,1.70
2018-09-10T12:03:55.779Z,1.70
2018-09-10T12:04:55.825Z,1.70
2018-09-10T12:05:55.873Z,1.70
2018-09-10T12:06:55.916Z,1.70
2018-09-10T12:07:55.971Z,2.10
2018-09-10T12:08:56.009Z,1.90
2018-09-10T12:09:56.064Z,1.90
2018-09-10T12:10:56.100Z,1.60
2018-09-10T12:11:56.147Z,1.80
2018-09-10T12:12:56.203Z,1.70
2018-09-10T12:13:56.242Z,1.60
2018-09-10T12:14:56.289Z,1.60
2018-09-10T12:15:56.334Z,1.50
2018-09-10T12:16:56.380Z,1.60
2018-09-10T12:17:56.431Z,1.60
2018-09-10T12:18:56.479Z,1.60
2018-09-10T12:19:56.521Z,1.70
2018-09-10T12:20:56.568Z,1.70
2018-09-10T12:21:56.614Z,1.70
2018-09-10T12:22:56.656Z,1.80
2018-09-10T12:23:56.710Z,1.80
2018-09-10T12:24:56.753Z,1.70
2018-09-10T12:25:56.797Z,1.60
2018-09-10T12:26:56.841Z,1.60
2018-09-10T12:27:56.889Z,1.80
2018-09-10T12:28:56.937Z,1.60
2018-09-10T12:29:56.983Z,1.90
2018-09-10T12:30:57.032Z,1.80
2018-09-10T12:31:57.074Z,1.70
2018-09-10T12:32:57.121Z,1.80
2018-09-10T12:33:57.168Z,1.80
2018-09-10T12:34:57.215Z,1.60
2018-09-10T12:35:57.264Z,1.70
2018-09-10T12:36:57.309Z,1.70
2018-09-10T12:37:57.355Z,1.40
2018-09-10T12:38:57.404Z,1.80
2018-09-10T12:39:57.450Z,1.60
2018-09-10T12:40:57.504Z,1.70
2018-09-10T12:41:57.544Z,1.80
2018-09-10T12:42:57.589Z,1.70
2018-09-10T12:43:57.637Z,1.70
2018-09-10T12:44:57.688Z,1.70
2018-09-10T12:45:57.730Z,1.60
2018-09-10T12:46:57.785Z,1.90
2018-09-10T12:47:57.830Z,1.70
2018-09-10T12:48:57.879Z,1.60
2018-09-10T12:49:57.970Z,1.60
2018-09-10T12:50:57.967Z,1.40
2018-09-10T12:51:58.015Z,1.70
2018-09-10T12:52:58.068Z,1.60
2018-09-10T12:53:58.107Z,1.70
2018-09-10T12:54:58.155Z,1.60
2018-09-10T12:55:58.200Z,1.70
2018-09-10T12:56:58.255Z,1.90
2018-09-10T12:57:58.295Z,1.40
2018-09-10T12:58:58.361Z,1.70
2018-09-10T12:59:58.391Z,1.80
2018-09-10T13:00:58.448Z,1.70
2018-09-10T13:01:58.539Z,1.70
2018-09-10T13:02:58.537Z,1.50
2018-09-10T13:03:58.582Z,1.70
2018-09-10T13:04:58.626Z,1.70
2018-09-10T13:05:58.670Z,1.60
2018-09-10T13:06:58.716Z,1.50
2018-09-10T13:07:58.771Z,1.60
2018-09-10T13:08:58.819Z,1.70
2018-09-10T13:09:58.860Z,1.60
2018-09-10T13:10:58.906Z,1.60
2018-09-10T13:11:58.952Z,1.50
2018-09-10T13:12:59.010Z,1.70
2018-09-10T13:13:59.050Z,1.60
2018-09-10T13:14:59.100Z,1.80
2018-09-10T13:15:59.149Z,1.60
2018-09-10T13:16:59.188Z,1.70
2018-09-10T13:17:59.234Z,1.70
2018-09-10T13:18:59.280Z,1.60